createdAt,value
2022-09-24T00:02:05.599Z,2.80
2022-09-24T00:04:34.852Z,4.50
2022-09-24T00:07:04.407Z,5.70
2022-09-24T00:09:32.691Z,7.20
2022-09-24T00:12:03.484Z,3.47
2022-09-24T00:14:31.855Z,4.63
2022-09-24T00:17:00.067Z,4.87
2022-09-24T00:19:28.321Z,10.23
2022-09-24T00:21:56.534Z,5.90
2022-09-24T00:24:49.199Z,3.73
2022-09-24T00:27:17.446Z,6.57
2022-09-24T00:29:45.671Z,4.03
2022-09-24T00:32:13.891Z,5.40
2022-09-24T00:34:42.133Z,3.53
2022-09-24T00:37:11.052Z,7.87
2022-09-24T00:39:40.628Z,4.33
2022-09-24T00:42:10.267Z,10.03
2022-09-24T00:44:56.226Z,4.47
2022-09-24T00:47:32.755Z,5.87
2022-09-24T00:50:07.939Z,4.97
2022-09-24T00:52:37.444Z,5.13
2022-09-24T00:55:09.716Z,4.27
2022-09-24T00:57:38.663Z,4.33
2022-09-24T01:00:07.997Z,7.17
2022-09-24T01:02:37.205Z,7.47
2022-09-24T01:05:10.185Z,4.13
2022-09-24T01:07:38.517Z,4.23
2022-09-24T01:10:08.491Z,4.17
2022-09-24T01:12:41.839Z,9.67
2022-09-24T01:15:15.759Z,3.80
2022-09-24T01:17:48.371Z,4.53
2022-09-24T01:20:34.326Z,3.30
2022-09-24T01:23:15.310Z,7.13
2022-09-24T01:25:52.067Z,3.37
2022-09-24T01:28:28.953Z,4.53
2022-09-24T01:31:01.314Z,4.27
2022-09-24T01:33:30.510Z,3.97
2022-09-24T01:36:01.398Z,3.93
2022-09-24T01:38:31.215Z,5.20
2022-09-24T01:41:02.698Z,3.90
2022-09-24T01:43:33.310Z,5.13
2022-09-24T01:46:07.322Z,8.80
2022-09-24T01:48:37.466Z,3.00
2022-09-24T01:51:11.373Z,7.83
2022-09-24T01:53:43.860Z,5.03
2022-09-24T01:56:17.018Z,6.03
2022-09-24T01:58:48.623Z,3.63
2022-09-24T02:01:23.008Z,5.70
2022-09-24T02:03:56.704Z,5.70
2022-09-24T02:06:28.889Z,4.63
2022-09-24T02:08:59.976Z,3.63
2022-09-24T02:11:30.569Z,3.23
2022-09-24T02:14:00.723Z,4.97
2022-09-24T02:16:31.548Z,4.60
2022-09-24T02:19:01.386Z,3.10
2022-09-24T02:21:30.582Z,4.50
2022-09-24T02:24:01.363Z,8.60
2022-09-24T02:26:30.287Z,4.83
2022-09-24T02:28:59.175Z,3.47
2022-09-24T02:31:30.089Z,4.13
2022-09-24T02:34:20.115Z,8.27
2022-09-24T02:36:50.813Z,4.97
2022-09-24T02:39:19.082Z,4.20
2022-09-24T02:41:48.206Z,6.23
2022-09-24T02:44:16.599Z,3.77
2022-09-24T02:46:45.010Z,4.53
2022-09-24T02:49:15.030Z,3.90
2022-09-24T02:51:43.300Z,3.67
2022-09-24T02:54:11.862Z,3.20
2022-09-24T02:56:40.657Z,6.40
2022-09-24T02:59:09.366Z,5.73
2022-09-24T03:01:37.920Z,2.80
2022-09-24T03:04:06.304Z,6.87
2022-09-24T03:06:36.717Z,10.17
2022-09-24T03:09:05.855Z,5.90
2022-09-24T03:11:35.546Z,7.23
2022-09-24T03:14:03.777Z,4.30
2022-09-24T03:16:34.631Z,3.03
2022-09-24T03:19:02.958Z,5.37
2022-09-24T03:21:31.221Z,5.50
2022-09-24T03:24:01.214Z,8.87
2022-09-24T03:26:29.731Z,6.50
2022-09-24T03:28:57.979Z,7.00
2022-09-24T03:31:25.326Z,6.90
2022-09-24T03:33:53.574Z,3.50
2022-09-24T03:36:22.629Z,5.30
2022-09-24T03:38:51.539Z,3.80
2022-09-24T03:41:21.106Z,5.63
2022-09-24T03:43:49.415Z,5.43
2022-09-24T03:46:17.858Z,5.90
2022-09-24T03:48:47.259Z,4.73
2022-09-24T03:51:16.596Z,8.83
2022-09-24T03:53:46.981Z,4.23
2022-09-24T03:56:15.925Z,5.10
2022-09-24T03:58:47.983Z,4.00
2022-09-24T04:01:21.131Z,5.00
2022-09-24T04:03:50.087Z,6.20
2022-09-24T04:06:23.395Z,4.20
2022-09-24T04:08:53.213Z,4.97
2022-09-24T04:11:21.431Z,3.53
2022-09-24T04:13:53.359Z,3.47
2022-09-24T04:16:21.929Z,7.70
2022-09-24T04:18:50.938Z,11.30
2022-09-24T04:21:19.212Z,5.23
2022-09-24T04:23:47.417Z,4.93
2022-09-24T04:26:16.400Z,4.00
2022-09-24T04:28:44.592Z,5.77
2022-09-24T04:31:14.222Z,4.23
2022-09-24T04:33:42.430Z,6.63
2022-09-24T04:36:10.706Z,5.73
2022-09-24T04:38:39.012Z,6.73
2022-09-24T04:41:07.938Z,3.20
2022-09-24T04:43:37.154Z,4.30
2022-09-24T04:46:05.813Z,5.60
2022-09-24T04:48:38.336Z,5.93
2022-09-24T04:51:07.119Z,5.90
2022-09-24T04:53:36.680Z,7.70
2022-09-24T04:56:04.997Z,15.10
2022-09-24T04:58:33.261Z,16.73
2022-09-24T05:01:04.006Z,4.03
2022-09-24T05:03:33.149Z,7.60
2022-09-24T05:06:02.921Z,3.23
2022-09-24T05:08:31.163Z,3.53
2022-09-24T05:11:02.130Z,5.30
2022-09-24T05:13:32.541Z,2.87
2022-09-24T05:16:01.386Z,6.50
2022-09-24T05:18:29.824Z,9.13
2022-09-24T05:20:58.084Z,5.63
2022-09-24T05:23:27.731Z,4.10
2022-09-24T05:26:13.749Z,6.17
2022-09-24T05:28:42.787Z,5.27
2022-09-24T05:31:11.753Z,5.07
2022-09-24T05:33:40.046Z,4.03
2022-09-24T05:36:08.406Z,3.83
2022-09-24T05:38:41.558Z,21.60
2022-09-24T05:41:10.749Z,4.73
2022-09-24T05:43:39.030Z,5.87
2022-09-24T05:46:07.993Z,5.93
2022-09-24T05:48:36.339Z,5.10
2022-09-24T05:51:05.345Z,4.27
2022-09-24T05:53:33.888Z,4.60
2022-09-24T05:56:03.930Z,5.77
2022-09-24T05:58:32.696Z,4.23
2022-09-24T06:01:01.553Z,5.70
2022-09-24T06:03:31.739Z,5.10
2022-09-24T06:06:02.052Z,7.57
2022-09-24T06:08:31.335Z,4.90
2022-09-24T06:11:00.406Z,6.30
2022-09-24T06:13:31.483Z,9.03
2022-09-24T06:16:01.971Z,8.45
2022-09-24T06:18:31.388Z,11.23
2022-09-24T06:21:03.217Z,8.63
2022-09-24T06:23:31.471Z,6.27
2022-09-24T06:25:59.865Z,10.27
2022-09-24T06:28:28.120Z,9.03
2022-09-24T06:30:57.734Z,14.97
2022-09-24T06:33:25.966Z,8.02
2022-09-24T06:35:54.286Z,6.90
2022-09-24T06:38:22.503Z,8.87
2022-09-24T06:40:50.787Z,9.53
2022-09-24T06:43:19.128Z,10.07
2022-09-24T06:45:47.407Z,7.20
2022-09-24T06:48:17.544Z,7.90
2022-09-24T06:50:47.367Z,6.93
2022-09-24T06:53:15.954Z,7.10
2022-09-24T06:55:45.143Z,9.80
2022-09-24T06:58:16.009Z,12.10
2022-09-24T07:00:44.852Z,7.97
2022-09-24T07:03:15.846Z,12.50
2022-09-24T07:05:45.393Z,7.47
2022-09-24T07:08:13.953Z,8.90
2022-09-24T07:10:43.909Z,8.30
2022-09-24T07:13:12.698Z,5.77
2022-09-24T07:15:41.241Z,9.10
2022-09-24T07:18:09.550Z,8.80
2022-09-24T07:20:37.837Z,12.23
2022-09-24T07:23:07.959Z,10.67
2022-09-24T07:25:36.185Z,7.10
2022-09-24T07:28:05.034Z,6.47
2022-09-24T07:30:33.480Z,10.40
2022-09-24T07:33:01.693Z,9.60
2022-09-24T07:35:30.036Z,5.80
2022-09-24T07:37:59.306Z,5.63
2022-09-24T07:40:37.947Z,6.07
2022-09-24T07:43:11.729Z,7.40
2022-09-24T07:45:39.964Z,8.57
2022-09-24T07:48:08.616Z,5.20
2022-09-24T07:50:40.029Z,5.90
2022-09-24T07:53:08.252Z,3.40
2022-09-24T07:55:40.538Z,3.70
2022-09-24T07:58:09.853Z,4.67
2022-09-24T08:00:38.076Z,6.30
2022-09-24T08:03:07.398Z,3.23
2022-09-24T08:05:35.740Z,2.87
2022-09-24T08:08:04.076Z,5.43
2022-09-24T08:10:32.278Z,7.03
2022-09-24T08:13:04.148Z,19.13
2022-09-24T08:15:32.346Z,5.93
2022-09-24T08:18:02.535Z,4.17
2022-09-24T08:20:30.734Z,7.47
2022-09-24T08:23:02.224Z,3.97
2022-09-24T08:25:31.207Z,3.90
2022-09-24T08:28:04.395Z,4.20
2022-09-24T08:30:33.302Z,7.03
2022-09-24T08:33:01.519Z,4.67
2022-09-24T08:35:29.815Z,6.07
2022-09-24T08:38:00.555Z,4.50
2022-09-24T08:40:30.182Z,7.03
2022-09-24T08:43:05.533Z,3.07
2022-09-24T08:45:59.054Z,8.30
2022-09-24T08:48:29.577Z,5.30
2022-09-24T08:51:01.181Z,6.63
2022-09-24T08:53:32.409Z,5.40
2022-09-24T08:56:01.497Z,5.30
2022-09-24T08:58:31.924Z,4.93
2022-09-24T09:01:07.023Z,2.97
2022-09-24T09:03:38.103Z,2.67
2022-09-24T09:06:11.267Z,11.93
2022-09-24T09:09:05.622Z,5.40
2022-09-24T09:11:34.265Z,4.90
2022-09-24T09:14:05.151Z,3.13
2022-09-24T09:16:35.970Z,4.23
2022-09-24T09:19:07.020Z,5.53
2022-09-24T09:21:39.336Z,3.40
2022-09-24T09:24:11.705Z,5.15
2022-09-24T09:26:39.927Z,4.27
2022-09-24T09:29:11.632Z,4.10
2022-09-24T09:31:52.449Z,6.57
2022-09-24T09:34:29.675Z,4.90
2022-09-24T09:37:03.580Z,4.53
2022-09-24T09:39:37.198Z,5.40
2022-09-24T09:42:10.382Z,4.77
2022-09-24T09:44:41.404Z,5.10
2022-09-24T09:47:20.834Z,8.70
2022-09-24T09:49:50.480Z,4.70
2022-09-24T09:52:23.985Z,5.00
2022-09-24T09:54:52.348Z,3.23
2022-09-24T09:57:21.781Z,7.13
2022-09-24T09:59:50.582Z,3.27
2022-09-24T10:02:28.387Z,3.30
2022-09-24T10:04:57.806Z,3.87
2022-09-24T10:07:26.018Z,2.40
2022-09-24T10:10:02.307Z,3.40
2022-09-24T10:12:30.686Z,4.67
2022-09-24T10:15:00.282Z,4.43
2022-09-24T10:17:32.283Z,4.17
2022-09-24T10:20:02.261Z,3.20
2022-09-24T10:22:31.052Z,2.63
2022-09-24T10:25:00.970Z,4.50
2022-09-24T10:27:32.540Z,3.97
2022-09-24T10:30:18.656Z,2.23
2022-09-24T10:32:49.298Z,2.50
2022-09-24T10:35:25.526Z,4.77
2022-09-24T10:37:54.625Z,3.43
2022-09-24T10:40:25.693Z,3.90
2022-09-24T10:42:57.981Z,2.40
2022-09-24T10:45:30.185Z,6.27
2022-09-24T10:48:08.749Z,3.07
2022-09-24T10:50:39.654Z,3.17
2022-09-24T10:53:09.762Z,4.27
2022-09-24T10:55:49.637Z,3.03
2022-09-24T10:58:25.959Z,4.60
2022-09-24T11:00:59.156Z,2.20
2022-09-24T11:03:38.087Z,3.03
2022-09-24T11:06:13.415Z,7.37
2022-09-24T11:08:52.692Z,5.50
2022-09-24T11:11:27.145Z,2.37
2022-09-24T11:14:02.561Z,2.53
2022-09-24T11:16:40.606Z,2.23
2022-09-24T11:19:16.909Z,7.13
2022-09-24T11:21:57.864Z,10.17
2022-09-24T11:24:33.506Z,3.23
2022-09-24T11:27:08.677Z,3.53
2022-09-24T11:29:57.990Z,12.10
2022-09-24T11:32:31.846Z,8.57
2022-09-24T11:35:14.947Z,9.13
2022-09-24T11:37:50.760Z,8.00
2022-09-24T11:40:27.048Z,4.70
2022-09-24T11:43:01.894Z,4.27
2022-09-24T11:45:35.865Z,5.13
2022-09-24T11:48:18.625Z,8.07
2022-09-24T11:50:52.599Z,5.37
2022-09-24T11:53:27.751Z,6.47
2022-09-24T11:55:58.742Z,3.40
2022-09-24T11:58:28.912Z,6.43
2022-09-24T12:00:59.304Z,3.10
2022-09-24T12:03:40.966Z,3.93
2022-09-24T12:06:12.231Z,9.33
2022-09-24T12:08:44.409Z,5.50
2022-09-24T12:11:15.767Z,5.13
2022-09-24T12:13:47.424Z,9.10
2022-09-24T12:16:17.087Z,3.83
2022-09-24T12:18:52.338Z,7.37
2022-09-24T12:21:23.487Z,6.23
2022-09-24T12:24:02.390Z,5.60
2022-09-24T12:26:32.164Z,6.27
2022-09-24T12:29:20.991Z,3.07
2022-09-24T12:32:13.801Z,15.10
2022-09-24T12:34:50.807Z,4.77
2022-09-24T12:37:22.389Z,4.00
2022-09-24T12:39:58.008Z,3.33
2022-09-24T12:42:29.309Z,3.70
2022-09-24T12:45:00.827Z,10.83
2022-09-24T12:47:31.529Z,2.80
2022-09-24T12:50:02.606Z,3.03
2022-09-24T12:52:34.435Z,6.00
2022-09-24T12:55:05.064Z,4.07
2022-09-24T12:57:38.727Z,5.57
2022-09-24T13:00:27.118Z,8.00
2022-09-24T13:02:57.701Z,4.73
2022-09-24T13:05:32.050Z,7.33
2022-09-24T13:08:01.185Z,7.50
2022-09-24T13:10:31.794Z,4.30
2022-09-24T13:13:01.254Z,3.23
2022-09-24T13:15:33.436Z,7.07
2022-09-24T13:18:06.031Z,7.20
2022-09-24T13:20:37.217Z,7.17
2022-09-24T13:23:18.966Z,15.83
2022-09-24T13:25:59.296Z,10.47
2022-09-24T13:28:38.302Z,3.97
2022-09-24T13:31:11.493Z,5.73
2022-09-24T13:33:44.495Z,6.53
2022-09-24T13:36:14.536Z,2.83
2022-09-24T13:38:46.996Z,2.20
2022-09-24T13:41:22.345Z,3.37
2022-09-24T13:43:53.179Z,2.93
2022-09-24T13:46:21.973Z,4.40
2022-09-24T13:48:51.732Z,2.50
2022-09-24T13:51:22.343Z,6.03
2022-09-24T13:53:53.309Z,5.07
2022-09-24T13:56:22.931Z,2.40
2022-09-24T13:58:51.696Z,3.80
2022-09-24T14:01:20.994Z,3.80
2022-09-24T14:03:58.438Z,2.57
2022-09-24T14:06:36.556Z,5.07
2022-09-24T14:09:15.885Z,2.57
2022-09-24T14:11:53.796Z,2.97
2022-09-24T14:14:23.300Z,3.63
2022-09-24T14:16:55.065Z,11.83
2022-09-24T14:19:23.989Z,4.07
2022-09-24T14:21:53.578Z,4.47
2022-09-24T14:24:24.513Z,3.57
2022-09-24T14:26:58.343Z,3.60
2022-09-24T14:29:30.091Z,6.47
2022-09-24T14:32:00.111Z,4.13
2022-09-24T14:34:29.581Z,5.60
2022-09-24T14:37:01.265Z,5.67
2022-09-24T14:39:32.900Z,4.57
2022-09-24T14:42:02.493Z,2.60
2022-09-24T14:44:31.609Z,4.30
2022-09-24T14:47:02.504Z,4.57
2022-09-24T14:49:31.559Z,2.80
2022-09-24T14:52:02.499Z,4.50
2022-09-24T14:54:33.563Z,2.93
2022-09-24T14:57:15.363Z,3.53
2022-09-24T14:59:45.670Z,3.53
2022-09-24T15:02:21.907Z,16.10
2022-09-24T15:04:53.540Z,3.73
2022-09-24T15:07:24.500Z,5.10
2022-09-24T15:09:56.175Z,4.17
2022-09-24T15:12:30.834Z,3.50
2022-09-24T15:15:02.552Z,7.47
2022-09-24T15:17:32.079Z,2.97
2022-09-24T15:20:00.300Z,3.57
2022-09-24T15:22:30.589Z,5.67
2022-09-24T15:25:01.875Z,3.40
2022-09-24T15:27:34.814Z,6.13
2022-09-24T15:30:04.710Z,3.50
2022-09-24T15:32:36.702Z,3.50
2022-09-24T15:35:09.234Z,9.83
2022-09-24T15:37:41.561Z,23.10
2022-09-24T15:40:13.214Z,4.43
2022-09-24T15:42:44.838Z,4.70
2022-09-24T15:45:17.557Z,8.07
2022-09-24T15:47:45.789Z,5.07
2022-09-24T15:50:15.941Z,2.77
2022-09-24T15:52:51.513Z,3.70
2022-09-24T15:55:21.169Z,2.40
2022-09-24T15:57:53.121Z,2.67
2022-09-24T16:00:21.938Z,2.83
2022-09-24T16:02:54.082Z,2.43
2022-09-24T16:05:22.709Z,3.93
2022-09-24T16:07:50.955Z,4.20
2022-09-24T16:10:21.188Z,3.20
2022-09-24T16:12:52.623Z,3.60
2022-09-24T16:15:22.857Z,5.13
2022-09-24T16:17:51.157Z,3.47
2022-09-24T16:20:22.931Z,5.67
2022-09-24T16:22:53.027Z,6.80
2022-09-24T16:25:23.187Z,3.90
2022-09-24T16:27:56.338Z,5.40
2022-09-24T16:30:26.700Z,4.53
2022-09-24T16:32:54.948Z,6.40
2022-09-24T16:35:24.933Z,4.50
2022-09-24T16:37:54.975Z,5.10
2022-09-24T16:40:25.084Z,6.80
2022-09-24T16:42:54.722Z,6.03
2022-09-24T16:45:28.142Z,4.70
2022-09-24T16:48:01.611Z,22.00
2022-09-24T16:50:31.723Z,10.13
2022-09-24T16:53:03.164Z,5.77
2022-09-24T16:55:34.223Z,6.77
2022-09-24T16:58:06.900Z,9.40
2022-09-24T17:00:38.131Z,10.40
2022-09-24T17:03:09.144Z,15.83
2022-09-24T17:05:41.609Z,13.70
2022-09-24T17:08:12.548Z,13.93
2022-09-24T17:10:43.149Z,11.77
2022-09-24T17:13:16.672Z,11.23
2022-09-24T17:15:46.138Z,8.40
2022-09-24T17:18:17.116Z,6.63
2022-09-24T17:20:46.512Z,7.57
2022-09-24T17:23:15.895Z,11.50
2022-09-24T17:25:45.247Z,10.60
2022-09-24T17:28:15.915Z,14.97
2022-09-24T17:30:45.970Z,7.73
2022-09-24T17:33:41.724Z,8.37
2022-09-24T17:36:04.527Z,13.13
2022-09-24T17:38:36.807Z,10.80
2022-09-24T17:41:09.037Z,7.50
2022-09-24T17:43:42.094Z,9.07
2022-09-24T17:46:15.283Z,9.00
2022-09-24T17:48:48.329Z,10.87
2022-09-24T17:51:22.025Z,6.93
2022-09-24T17:53:54.030Z,5.23
2022-09-24T17:56:26.646Z,10.10
2022-09-24T17:59:00.161Z,7.60
2022-09-24T18:01:35.764Z,6.77
2022-09-24T18:04:08.024Z,7.87
2022-09-24T18:06:41.446Z,5.53
2022-09-24T18:09:13.897Z,5.47
2022-09-24T18:11:45.246Z,5.23
2022-09-24T18:14:19.038Z,7.00
2022-09-24T18:16:50.783Z,3.10
2022-09-24T18:19:22.989Z,19.03
2022-09-24T18:21:56.067Z,8.80
2022-09-24T18:24:27.618Z,10.73
2022-09-24T18:26:58.997Z,7.07
2022-09-24T18:29:32.289Z,5.07
2022-09-24T18:32:03.787Z,4.10
2022-09-24T18:34:35.214Z,4.60
2022-09-24T18:37:06.518Z,3.87
2022-09-24T18:39:37.935Z,4.70
2022-09-24T18:42:07.804Z,7.30
2022-09-24T18:44:40.683Z,7.63
2022-09-24T18:47:15.153Z,12.53
2022-09-24T18:49:46.640Z,9.07
2022-09-24T18:52:24.347Z,5.77
2022-09-24T18:54:54.301Z,6.77
2022-09-24T18:57:25.746Z,6.13
2022-09-24T18:59:58.626Z,3.23
2022-09-24T19:02:30.277Z,5.50
2022-09-24T19:05:00.530Z,6.50
2022-09-24T19:07:32.017Z,6.90
2022-09-24T19:10:00.224Z,8.83
2022-09-24T19:12:31.996Z,13.10
2022-09-24T19:15:06.832Z,11.67
2022-09-24T19:17:38.327Z,10.13
2022-09-24T19:20:07.123Z,9.43
2022-09-24T19:22:38.372Z,9.77
2022-09-24T19:25:12.414Z,9.40
2022-09-24T19:27:46.398Z,11.47
2022-09-24T19:30:17.970Z,9.27
2022-09-24T19:32:49.323Z,12.40
2022-09-24T19:35:22.716Z,12.67
2022-09-24T19:37:54.280Z,11.77
2022-09-24T19:40:25.750Z,24.87
2022-09-24T19:42:57.275Z,17.10
2022-09-24T19:45:31.064Z,6.80
2022-09-24T19:48:02.495Z,12.90
2022-09-24T19:50:34.969Z,17.87
2022-09-24T19:53:09.632Z,13.33
2022-09-24T19:55:41.074Z,16.13
2022-09-24T19:58:15.652Z,16.77
2022-09-24T20:00:45.233Z,13.57
2022-09-24T20:03:17.062Z,6.27
2022-09-24T20:05:54.695Z,10.40
2022-09-24T20:08:28.663Z,8.40
2022-09-24T20:11:00.156Z,4.40
2022-09-24T20:13:33.696Z,7.47
2022-09-24T20:16:07.614Z,7.53
2022-09-24T20:18:39.016Z,8.93
2022-09-24T20:21:13.379Z,9.97
2022-09-24T20:23:44.871Z,16.20
2022-09-24T20:26:34.642Z,19.57
2022-09-24T20:29:05.688Z,38.23
2022-09-24T20:31:37.264Z,45.83
2022-09-24T20:34:09.253Z,20.57
2022-09-24T20:36:47.127Z,24.63
2022-09-24T20:39:17.320Z,18.10
2022-09-24T20:41:49.343Z,14.10
2022-09-24T20:44:22.046Z,19.37
2022-09-24T20:46:56.474Z,14.03
2022-09-24T20:49:30.148Z,20.57
2022-09-24T20:52:03.135Z,13.00
2022-09-24T20:54:35.367Z,12.80
2022-09-24T20:57:03.588Z,10.90
2022-09-24T20:59:37.433Z,9.17
2022-09-24T21:02:09.701Z,33.10
2022-09-24T21:04:41.070Z,23.47
2022-09-24T21:07:12.800Z,16.80
2022-09-24T21:09:44.749Z,13.83
2022-09-24T21:12:14.203Z,7.53
2022-09-24T21:14:45.688Z,5.53
2022-09-24T21:17:18.930Z,4.13
2022-09-24T21:19:50.271Z,9.17
2022-09-24T21:22:18.646Z,6.43
2022-09-24T21:24:47.276Z,10.93
2022-09-24T21:27:16.457Z,5.40
2022-09-24T21:29:47.253Z,15.23
2022-09-24T21:32:20.488Z,4.30
2022-09-24T21:34:52.700Z,11.10
2022-09-24T21:37:25.222Z,8.90
2022-09-24T21:39:56.662Z,8.30
2022-09-24T21:42:30.121Z,9.33
2022-09-24T21:45:01.582Z,7.63
2022-09-24T21:47:33.072Z,10.67
2022-09-24T21:50:01.342Z,7.07
2022-09-24T21:52:32.794Z,6.27
2022-09-24T21:55:04.712Z,5.20
2022-09-24T21:57:34.703Z,4.57
2022-09-24T22:00:03.787Z,3.43
2022-09-24T22:02:37.926Z,5.87
2022-09-24T22:05:11.798Z,9.90
2022-09-24T22:07:45.407Z,4.93
2022-09-24T22:10:13.646Z,7.27
2022-09-24T22:12:41.849Z,12.73
2022-09-24T22:15:13.897Z,5.30
2022-09-24T22:17:44.380Z,8.07
2022-09-24T22:20:13.038Z,7.93
2022-09-24T22:22:44.233Z,6.37
2022-09-24T22:25:17.739Z,8.60
2022-09-24T22:27:50.732Z,11.90
2022-09-24T22:30:19.098Z,12.60
2022-09-24T22:32:51.843Z,8.77
2022-09-24T22:35:43.576Z,11.57
2022-09-24T22:38:17.989Z,8.53
2022-09-24T22:40:46.262Z,8.03
2022-09-24T22:43:19.943Z,9.53
2022-09-24T22:45:52.034Z,10.90
2022-09-24T22:48:24.902Z,8.63
2022-09-24T22:50:59.154Z,15.90
2022-09-24T22:53:32.899Z,9.00
2022-09-24T22:56:10.921Z,8.73
2022-09-24T22:58:44.709Z,8.07
2022-09-24T23:01:17.074Z,9.53
2022-09-24T23:03:54.309Z,16.77
2022-09-24T23:06:26.719Z,25.53
2022-09-24T23:08:59.615Z,11.87
2022-09-24T23:11:31.876Z,18.27
2022-09-24T23:14:04.563Z,16.20
2022-09-24T23:16:39.287Z,17.23
2022-09-24T23:19:13.794Z,25.57
2022-09-24T23:21:47.268Z,22.13
2022-09-24T23:24:16.755Z,12.80
2022-09-24T23:26:47.862Z,11.80
2022-09-24T23:29:19.948Z,8.20
2022-09-24T23:31:53.895Z,11.60
2022-09-24T23:34:27.389Z,9.87
2022-09-24T23:36:58.844Z,14.00
2022-09-24T23:39:29.306Z,9.47
2022-09-24T23:42:03.257Z,12.13
2022-09-24T23:44:35.375Z,9.67
2022-09-24T23:47:06.922Z,7.13
2022-09-24T23:49:38.507Z,14.90
2022-09-24T23:52:12.418Z,8.57
2022-09-24T23:54:40.659Z,7.50
2022-09-24T23:57:12.584Z,6.73
2022-09-24T23:59:44.533Z,4.80
